createdAt,value
2023-02-11T00:01:21.330Z,51.33
2023-02-11T00:03:48.044Z,53.17
2023-02-11T00:06:14.677Z,56.80
2023-02-11T00:08:41.430Z,64.60
2023-02-11T00:11:08.029Z,57.83
2023-02-11T00:13:34.708Z,59.47
2023-02-11T00:16:06.019Z,53.67
2023-02-11T00:18:32.495Z,53.47
2023-02-11T00:20:58.971Z,56.03
2023-02-11T00:23:25.518Z,56.07
2023-02-11T00:25:52.639Z,55.33
2023-02-11T00:28:19.396Z,62.83
2023-02-11T00:30:46.169Z,55.63
2023-02-11T00:33:12.820Z,62.60
2023-02-11T00:35:39.413Z,68.50
2023-02-11T00:38:07.708Z,52.63
2023-02-11T00:40:34.141Z,56.10
2023-02-11T00:43:00.675Z,56.93
2023-02-11T00:45:27.341Z,56.97
2023-02-11T00:47:54.729Z,61.13
2023-02-11T00:50:21.331Z,63.53
2023-02-11T00:52:48.209Z,56.20
2023-02-11T00:55:15.317Z,54.23
2023-02-11T00:57:42.011Z,60.53
2023-02-11T01:00:08.974Z,53.43
2023-02-11T01:02:35.481Z,60.50
2023-02-11T01:05:03.840Z,60.80
2023-02-11T01:07:32.375Z,61.57
2023-02-11T01:09:58.890Z,58.77
2023-02-11T01:12:25.411Z,56.00
2023-02-11T01:14:51.916Z,55.27
2023-02-11T01:17:19.256Z,56.00
2023-02-11T01:19:45.804Z,61.53
2023-02-11T01:22:12.371Z,68.73
2023-02-11T01:24:39.233Z,68.40
2023-02-11T01:27:07.459Z,67.13
2023-02-11T01:29:34.163Z,66.20
2023-02-11T01:32:01.205Z,69.10
2023-02-11T01:34:27.882Z,61.63
2023-02-11T01:37:00.211Z,66.80
2023-02-11T01:39:28.790Z,60.20
2023-02-11T01:41:55.350Z,65.67
2023-02-11T01:44:22.915Z,61.67
2023-02-11T01:46:49.493Z,62.50
2023-02-11T01:49:23.360Z,57.07
2023-02-11T01:51:53.861Z,71.43
2023-02-11T01:54:40.690Z,57.03
2023-02-11T01:57:23.061Z,65.93
2023-02-11T01:59:49.670Z,60.10
2023-02-11T02:02:19.452Z,75.63
2023-02-11T02:04:59.400Z,60.03
2023-02-11T02:07:30.460Z,69.63
2023-02-11T02:10:05.842Z,78.93
2023-02-11T02:12:32.376Z,61.33
2023-02-11T02:15:18.180Z,63.17
2023-02-11T02:17:49.729Z,72.60
2023-02-11T02:20:28.628Z,65.37
2023-02-11T02:23:10.531Z,58.03
2023-02-11T02:25:43.181Z,61.90
2023-02-11T02:28:36.342Z,63.80
2023-02-11T02:31:12.066Z,61.23
2023-02-11T02:33:57.842Z,71.63
2023-02-11T02:36:32.445Z,70.97
2023-02-11T02:39:10.704Z,65.97
2023-02-11T02:41:37.824Z,66.33
2023-02-11T02:44:04.605Z,65.37
2023-02-11T02:46:32.625Z,81.60
2023-02-11T02:48:59.749Z,69.57
2023-02-11T02:51:32.387Z,78.87
2023-02-11T02:54:17.510Z,81.93
2023-02-11T02:56:44.064Z,69.87
2023-02-11T02:59:25.883Z,83.37
2023-02-11T03:01:58.749Z,76.03
2023-02-11T03:04:28.171Z,73.93
2023-02-11T03:06:54.610Z,69.90
2023-02-11T03:09:28.195Z,78.23
2023-02-11T03:11:54.847Z,77.80
2023-02-11T03:14:22.042Z,70.87
2023-02-11T03:16:49.206Z,62.43
2023-02-11T03:19:18.994Z,76.93
2023-02-11T03:21:46.942Z,70.67
2023-02-11T03:24:17.276Z,75.00
2023-02-11T03:26:46.525Z,62.57
2023-02-11T03:29:13.146Z,68.63
2023-02-11T03:31:39.976Z,60.57
2023-02-11T03:34:10.095Z,62.83
2023-02-11T03:36:41.064Z,60.70
2023-02-11T03:39:09.104Z,63.57
2023-02-11T03:41:35.777Z,68.50
2023-02-11T03:44:02.746Z,67.73
2023-02-11T03:46:31.773Z,64.17
2023-02-11T03:49:04.087Z,69.07
2023-02-11T03:51:32.025Z,56.63
2023-02-11T03:54:00.331Z,69.13
2023-02-11T03:56:29.156Z,70.03
2023-02-11T03:58:55.692Z,57.90
2023-02-11T04:01:22.522Z,57.77
2023-02-11T04:03:49.159Z,51.53
2023-02-11T04:06:15.891Z,65.37
2023-02-11T04:08:42.459Z,57.93
2023-02-11T04:11:09.412Z,71.77
2023-02-11T04:13:36.046Z,68.27
2023-02-11T04:16:02.635Z,63.27
2023-02-11T04:18:29.134Z,63.20
2023-02-11T04:20:55.615Z,56.27
2023-02-11T04:23:22.174Z,59.63
2023-02-11T04:25:49.574Z,65.97
2023-02-11T04:28:16.536Z,62.10
2023-02-11T04:30:43.134Z,58.07
2023-02-11T04:33:09.688Z,76.77
2023-02-11T04:35:36.247Z,56.50
2023-02-11T04:38:02.845Z,72.47
2023-02-11T04:40:29.684Z,69.27
2023-02-11T04:42:56.403Z,79.70
2023-02-11T04:45:23.037Z,63.77
2023-02-11T04:47:49.825Z,57.43
2023-02-11T04:50:16.371Z,77.13
2023-02-11T04:52:42.981Z,66.73
2023-02-11T04:55:09.580Z,75.23
2023-02-11T04:57:36.177Z,70.90
2023-02-11T05:00:03.126Z,67.67
2023-02-11T05:02:29.695Z,85.23
2023-02-11T05:04:56.202Z,76.27
2023-02-11T05:07:22.775Z,70.03
2023-02-11T05:09:49.265Z,72.97
2023-02-11T05:12:15.933Z,79.33
2023-02-11T05:14:42.420Z,69.07
2023-02-11T05:17:09.243Z,82.00
2023-02-11T05:19:35.747Z,81.43
2023-02-11T05:22:03.648Z,81.83
2023-02-11T05:24:33.699Z,80.90
2023-02-11T05:27:00.666Z,81.83
2023-02-11T05:29:27.601Z,77.00
2023-02-11T05:31:54.108Z,77.43
2023-02-11T05:34:20.931Z,64.93
2023-02-11T05:36:47.400Z,83.03
2023-02-11T05:39:13.911Z,72.10
2023-02-11T05:41:40.438Z,93.33
2023-02-11T05:44:06.937Z,77.93
2023-02-11T05:46:33.501Z,83.10
2023-02-11T05:49:00.184Z,91.43
2023-02-11T05:51:26.654Z,91.57
2023-02-11T05:53:53.247Z,82.03
2023-02-11T05:56:19.823Z,92.20
2023-02-11T05:58:46.297Z,74.87
2023-02-11T06:01:12.939Z,80.63
2023-02-11T06:03:39.469Z,77.57
2023-02-11T06:06:09.617Z,60.43
2023-02-11T06:08:38.163Z,74.53
2023-02-11T06:11:05.622Z,87.80
2023-02-11T06:13:32.295Z,88.63
2023-02-11T06:15:59.561Z,71.53
2023-02-11T06:18:26.142Z,82.07
2023-02-11T06:20:52.740Z,81.90
2023-02-11T06:23:19.376Z,81.63
2023-02-11T06:25:46.064Z,85.27
2023-02-11T06:28:12.678Z,98.07
2023-02-11T06:30:39.234Z,84.07
2023-02-11T06:33:06.152Z,84.40
2023-02-11T06:35:35.454Z,104.27
2023-02-11T06:38:02.072Z,86.77
2023-02-11T06:40:28.626Z,95.17
2023-02-11T06:42:55.392Z,94.33
2023-02-11T06:45:22.129Z,94.27
2023-02-11T06:47:51.416Z,96.63
2023-02-11T06:50:18.135Z,93.07
2023-02-11T06:52:44.803Z,102.50
2023-02-11T06:55:11.347Z,85.30
2023-02-11T06:57:37.815Z,126.20
2023-02-11T07:00:05.669Z,130.10
2023-02-11T07:02:32.544Z,101.80
2023-02-11T07:04:59.014Z,117.70
2023-02-11T07:07:25.561Z,111.20
2023-02-11T07:09:52.434Z,115.90
2023-02-11T07:12:18.986Z,129.73
2023-02-11T07:14:45.762Z,107.33
2023-02-11T07:17:12.238Z,123.03
2023-02-11T07:19:38.804Z,119.77
2023-02-11T07:22:05.297Z,122.67
2023-02-11T07:24:31.813Z,104.90
2023-02-11T07:26:58.390Z,126.80
2023-02-11T07:29:24.967Z,131.40
2023-02-11T07:31:51.677Z,113.23
2023-02-11T07:34:19.465Z,108.77
2023-02-11T07:36:46.107Z,140.40
2023-02-11T07:39:12.890Z,145.60
2023-02-11T07:41:39.376Z,139.20
2023-02-11T07:44:06.094Z,131.47
2023-02-11T07:46:32.900Z,125.37
2023-02-11T07:48:59.663Z,148.30
2023-02-11T07:51:27.897Z,111.70
2023-02-11T07:53:55.690Z,154.10
2023-02-11T07:56:22.466Z,110.73
2023-02-11T07:58:49.419Z,149.93
2023-02-11T08:01:22.449Z,117.60
2023-02-11T08:03:49.089Z,166.50
2023-02-11T08:06:16.852Z,154.10
2023-02-11T08:08:43.831Z,174.43
2023-02-11T08:11:12.269Z,139.60
2023-02-11T08:13:38.804Z,106.37
2023-02-11T08:16:05.946Z,167.57
2023-02-11T08:18:33.232Z,143.20
2023-02-11T08:21:10.180Z,148.97
2023-02-11T08:23:38.104Z,146.43
2023-02-11T08:26:05.636Z,168.27
2023-02-11T08:28:32.350Z,127.90
2023-02-11T08:31:04.483Z,127.53
2023-02-11T08:33:31.213Z,125.53
2023-02-11T08:35:57.883Z,109.37
2023-02-11T08:38:24.410Z,107.10
2023-02-11T08:40:51.241Z,114.50
2023-02-11T08:43:17.996Z,133.03
2023-02-11T08:45:44.688Z,124.43
2023-02-11T08:48:11.414Z,103.83
2023-02-11T08:50:39.382Z,110.60
2023-02-11T08:53:05.943Z,114.23
2023-02-11T08:55:32.546Z,97.83
2023-02-11T08:57:59.090Z,108.10
2023-02-11T09:00:26.031Z,113.53
2023-02-11T09:02:52.742Z,80.53
2023-02-11T09:05:19.366Z,97.57
2023-02-11T09:07:45.977Z,89.60
2023-02-11T09:10:12.614Z,95.63
2023-02-11T09:12:39.157Z,89.23
2023-02-11T09:15:06.062Z,115.57
2023-02-11T09:17:32.771Z,106.20
2023-02-11T09:19:59.383Z,100.13
2023-02-11T09:22:25.905Z,100.43
2023-02-11T09:24:52.418Z,114.00
2023-02-11T09:27:18.931Z,104.70
2023-02-11T09:29:45.686Z,118.40
2023-02-11T09:32:12.540Z,123.67
2023-02-11T09:34:39.251Z,111.80
2023-02-11T09:37:05.829Z,109.83
2023-02-11T09:39:32.302Z,117.93
2023-02-11T09:42:22.192Z,117.50
2023-02-11T09:44:49.038Z,119.80
2023-02-11T09:47:34.524Z,145.77
2023-02-11T09:50:06.794Z,113.67
2023-02-11T09:52:39.690Z,120.53
2023-02-11T09:55:14.751Z,99.97
2023-02-11T09:57:41.304Z,129.47
2023-02-11T10:00:17.823Z,121.07
2023-02-11T10:02:55.824Z,124.03
2023-02-11T10:05:41.158Z,103.50
2023-02-11T10:08:30.324Z,109.97
2023-02-11T10:11:02.210Z,98.93
2023-02-11T10:13:47.209Z,112.10
2023-02-11T10:16:16.764Z,123.20
2023-02-11T10:18:43.342Z,99.73
2023-02-11T10:21:20.624Z,129.00
2023-02-11T10:23:51.559Z,121.17
2023-02-11T10:26:19.171Z,123.77
2023-02-11T10:28:50.914Z,157.83
2023-02-11T10:31:22.577Z,116.97
2023-02-11T10:34:03.564Z,126.47
2023-02-11T10:36:31.414Z,120.60
2023-02-11T10:38:59.536Z,121.83
2023-02-11T10:41:49.498Z,129.27
2023-02-11T10:44:24.720Z,117.90
2023-02-11T10:46:51.942Z,117.57
2023-02-11T10:49:35.427Z,128.20
2023-02-11T10:52:31.393Z,126.63
2023-02-11T10:55:18.165Z,141.27
2023-02-11T10:57:51.006Z,133.63
2023-02-11T11:00:17.734Z,145.00
2023-02-11T11:02:44.917Z,122.77
2023-02-11T11:05:19.951Z,154.00
2023-02-11T11:08:06.426Z,133.60
2023-02-11T11:10:43.576Z,132.60
2023-02-11T11:13:30.449Z,138.00
2023-02-11T11:16:12.479Z,134.43
2023-02-11T11:18:39.962Z,147.97
2023-02-11T11:21:12.278Z,136.00
2023-02-11T11:23:39.768Z,156.60
2023-02-11T11:26:11.265Z,134.93
2023-02-11T11:28:40.286Z,157.30
2023-02-11T11:31:13.616Z,154.03
2023-02-11T11:33:41.610Z,143.80
2023-02-11T11:36:09.720Z,139.40
2023-02-11T11:38:38.092Z,151.80
2023-02-11T11:41:17.043Z,142.60
2023-02-11T11:43:57.389Z,157.50
2023-02-11T11:46:31.332Z,145.20
2023-02-11T11:49:21.304Z,150.23
2023-02-11T11:51:52.955Z,138.33
2023-02-11T11:54:20.076Z,143.63
2023-02-11T11:57:02.671Z,140.67
2023-02-11T11:59:30.231Z,162.63
2023-02-11T12:02:18.156Z,142.33
2023-02-11T12:04:55.922Z,157.33
2023-02-11T12:07:41.347Z,130.07
2023-02-11T12:10:14.072Z,155.63
2023-02-11T12:12:46.505Z,152.57
2023-02-11T12:15:19.481Z,153.00
2023-02-11T12:17:56.787Z,151.07
2023-02-11T12:20:38.568Z,141.53
2023-02-11T12:23:14.550Z,143.97
2023-02-11T12:25:59.974Z,145.60
2023-02-11T12:28:35.009Z,146.20
2023-02-11T12:31:04.839Z,143.90
2023-02-11T12:33:31.570Z,176.40
2023-02-11T12:36:01.079Z,153.43
2023-02-11T12:38:33.897Z,148.73
2023-02-11T12:41:39.189Z,144.33
2023-02-11T12:44:07.214Z,177.53
2023-02-11T12:46:41.425Z,145.80
2023-02-11T12:49:34.995Z,163.80
2023-02-11T12:52:17.790Z,152.27
2023-02-11T12:54:48.883Z,163.87
2023-02-11T12:57:19.694Z,166.57
2023-02-11T12:59:49.987Z,187.90
2023-02-11T13:02:20.019Z,152.60
2023-02-11T13:04:50.122Z,162.93
2023-02-11T13:07:24.020Z,139.23
2023-02-11T13:09:56.930Z,170.87
2023-02-11T13:12:42.893Z,154.40
2023-02-11T13:15:12.892Z,176.50
2023-02-11T13:17:51.669Z,196.27
2023-02-11T13:20:24.914Z,158.97
2023-02-11T13:22:59.560Z,170.40
2023-02-11T13:25:26.162Z,181.23
2023-02-11T13:27:59.890Z,202.97
2023-02-11T13:30:33.352Z,164.00
2023-02-11T13:33:03.277Z,187.63
2023-02-11T13:35:33.857Z,187.27
2023-02-11T13:38:01.649Z,197.07
2023-02-11T13:40:31.448Z,191.53
2023-02-11T13:42:59.316Z,163.73
2023-02-11T13:45:29.116Z,179.33
2023-02-11T13:47:58.033Z,203.27
2023-02-11T13:50:25.579Z,184.30
2023-02-11T13:53:00.891Z,199.70
2023-02-11T13:55:28.328Z,169.90
2023-02-11T13:58:07.146Z,156.30
2023-02-11T14:00:33.869Z,190.00
2023-02-11T14:03:31.428Z,177.03
2023-02-11T14:06:29.214Z,186.27
2023-02-11T14:08:58.838Z,187.60
2023-02-11T14:11:40.789Z,178.33
2023-02-11T14:14:19.586Z,153.73
2023-02-11T14:16:58.606Z,172.43
2023-02-11T14:19:31.971Z,170.13
2023-02-11T14:22:05.762Z,181.33
2023-02-11T14:24:32.385Z,185.43
2023-02-11T14:27:06.377Z,191.03
2023-02-11T14:29:45.681Z,186.97
2023-02-11T14:32:31.344Z,170.63
2023-02-11T14:35:12.720Z,179.33
2023-02-11T14:37:55.978Z,169.90
2023-02-11T14:40:28.703Z,149.90
2023-02-11T14:42:56.279Z,164.73
2023-02-11T14:45:28.434Z,151.27
2023-02-11T14:48:16.059Z,164.60
2023-02-11T14:50:48.487Z,145.83
2023-02-11T14:53:16.605Z,156.27
2023-02-11T14:55:44.716Z,136.93
2023-02-11T14:58:14.699Z,152.70
2023-02-11T15:01:02.157Z,145.80
2023-02-11T15:03:39.757Z,150.23
2023-02-11T15:06:22.915Z,152.50
2023-02-11T15:08:52.594Z,149.63
2023-02-11T15:11:21.748Z,124.27
2023-02-11T15:13:50.299Z,150.33
2023-02-11T15:16:19.690Z,143.43
2023-02-11T15:18:49.100Z,127.73
2023-02-11T15:21:26.578Z,141.97
2023-02-11T15:24:00.848Z,151.43
2023-02-11T15:26:28.093Z,174.77
2023-02-11T15:28:56.053Z,88.17
2023-02-11T15:31:24.316Z,133.77
2023-02-11T15:33:51.744Z,123.07
2023-02-11T15:36:20.535Z,117.57
2023-02-11T15:39:07.109Z,140.17
2023-02-11T15:41:35.536Z,129.37
2023-02-11T15:44:02.153Z,112.53
2023-02-11T15:46:32.998Z,135.37
2023-02-11T15:48:59.799Z,119.60
2023-02-11T15:51:35.434Z,125.37
2023-02-11T15:54:04.122Z,130.60
2023-02-11T15:56:43.073Z,124.73
2023-02-11T15:59:18.310Z,141.30
2023-02-11T16:01:45.641Z,121.47
2023-02-11T16:04:20.005Z,126.13
2023-02-11T16:06:50.215Z,137.40
2023-02-11T16:09:16.816Z,132.47
2023-02-11T16:11:46.596Z,130.93
2023-02-11T16:14:22.935Z,132.80
2023-02-11T16:16:51.677Z,128.40
2023-02-11T16:19:19.657Z,131.13
2023-02-11T16:21:46.656Z,139.93
2023-02-11T16:24:32.631Z,130.47
2023-02-11T16:27:03.567Z,129.60
2023-02-11T16:29:31.130Z,129.10
2023-02-11T16:32:15.769Z,128.20
2023-02-11T16:34:45.583Z,126.83
2023-02-11T16:37:12.184Z,130.73
2023-02-11T16:39:38.698Z,129.33
2023-02-11T16:42:08.854Z,116.83
2023-02-11T16:44:35.382Z,126.57
2023-02-11T16:47:06.094Z,123.93
2023-02-11T16:49:35.355Z,148.93
2023-02-11T16:52:02.600Z,148.30
2023-02-11T16:54:29.542Z,159.90
2023-02-11T16:56:56.589Z,164.90
2023-02-11T16:59:23.582Z,143.87
2023-02-11T17:01:50.622Z,162.07
2023-02-11T17:04:35.604Z,154.93
2023-02-11T17:07:02.455Z,133.87
2023-02-11T17:09:30.878Z,183.87
2023-02-11T17:11:57.964Z,199.50
2023-02-11T17:14:24.700Z,180.37
2023-02-11T17:16:51.449Z,163.57
2023-02-11T17:19:21.767Z,156.83
2023-02-11T17:21:50.045Z,176.83
2023-02-11T17:24:16.934Z,141.70
2023-02-11T17:26:44.261Z,163.83
2023-02-11T17:29:12.031Z,151.60
2023-02-11T17:31:39.897Z,168.27
2023-02-11T17:34:06.615Z,150.10
2023-02-11T17:36:33.578Z,152.50
2023-02-11T17:39:00.853Z,169.63
2023-02-11T17:41:27.777Z,144.63
2023-02-11T17:43:57.401Z,163.80
2023-02-11T17:46:24.254Z,164.67
2023-02-11T17:48:53.179Z,171.30
2023-02-11T17:51:25.720Z,165.87
2023-02-11T17:53:52.876Z,166.87
2023-02-11T17:56:20.060Z,174.50
2023-02-11T17:58:46.868Z,171.70
2023-02-11T18:01:13.585Z,171.00
2023-02-11T18:03:40.374Z,187.03
2023-02-11T18:06:07.705Z,168.23
2023-02-11T18:08:35.510Z,183.63
2023-02-11T18:11:02.646Z,190.10
2023-02-11T18:13:29.268Z,173.87
2023-02-11T18:16:01.261Z,183.83
2023-02-11T18:18:27.902Z,162.13
2023-02-11T18:20:58.358Z,165.27
2023-02-11T18:23:25.051Z,180.37
2023-02-11T18:25:52.011Z,177.33
2023-02-11T18:28:18.861Z,178.60
2023-02-11T18:30:45.767Z,184.37
2023-02-11T18:33:14.266Z,182.13
2023-02-11T18:35:41.970Z,175.30
2023-02-11T18:38:09.523Z,180.17
2023-02-11T18:40:39.699Z,170.63
2023-02-11T18:43:06.495Z,175.50
2023-02-11T18:45:33.146Z,184.77
2023-02-11T18:48:01.605Z,175.53
2023-02-11T18:50:28.162Z,178.57
2023-02-11T18:52:54.723Z,200.10
2023-02-11T18:55:25.385Z,170.83
2023-02-11T18:57:53.096Z,176.73
2023-02-11T19:00:20.652Z,183.57
2023-02-11T19:02:47.405Z,186.70
2023-02-11T19:05:14.250Z,179.03
2023-02-11T19:07:41.059Z,182.53
2023-02-11T19:10:08.620Z,200.50
2023-02-11T19:12:35.286Z,191.03
2023-02-11T19:15:01.961Z,209.00
2023-02-11T19:17:28.556Z,186.77
2023-02-11T19:19:55.294Z,219.10
2023-02-11T19:22:21.906Z,205.67
2023-02-11T19:24:48.680Z,215.07
2023-02-11T19:27:15.378Z,227.93
2023-02-11T19:29:42.086Z,206.47
2023-02-11T19:32:08.730Z,236.10
2023-02-11T19:34:41.064Z,223.23
2023-02-11T19:37:08.203Z,236.23
2023-02-11T19:39:34.839Z,226.43
2023-02-11T19:42:01.671Z,224.30
2023-02-11T19:44:28.397Z,216.73
2023-02-11T19:46:54.990Z,228.33
2023-02-11T19:49:26.349Z,212.60
2023-02-11T19:51:53.816Z,223.20
2023-02-11T19:54:22.184Z,227.10
2023-02-11T19:56:48.793Z,234.57
2023-02-11T19:59:15.763Z,228.70
2023-02-11T20:01:42.623Z,234.93
2023-02-11T20:04:09.484Z,231.07
2023-02-11T20:06:36.343Z,243.43
2023-02-11T20:09:06.456Z,237.17
2023-02-11T20:11:33.962Z,230.53
2023-02-11T20:14:00.813Z,219.47
2023-02-11T20:16:46.149Z,235.17
2023-02-11T20:19:18.459Z,239.60
2023-02-11T20:21:47.103Z,225.03
2023-02-11T20:24:14.558Z,230.97
2023-02-11T20:26:42.627Z,251.17
2023-02-11T20:29:12.004Z,226.00
2023-02-11T20:31:38.703Z,240.80
2023-02-11T20:34:05.902Z,227.07
2023-02-11T20:36:35.508Z,232.80
2023-02-11T20:39:03.358Z,219.00
2023-02-11T20:41:32.599Z,237.80
2023-02-11T20:44:00.154Z,242.40
2023-02-11T20:46:27.967Z,208.83
2023-02-11T20:48:55.384Z,228.67
2023-02-11T20:51:23.568Z,232.57
2023-02-11T20:53:51.462Z,228.33
2023-02-11T20:56:22.790Z,220.80
2023-02-11T20:58:49.798Z,215.47
2023-02-11T21:01:24.573Z,206.47
2023-02-11T21:03:52.413Z,215.40
2023-02-11T21:06:19.758Z,203.77
2023-02-11T21:08:46.915Z,236.37
2023-02-11T21:11:13.909Z,192.50
2023-02-11T21:13:41.015Z,206.37
2023-02-11T21:16:08.346Z,201.37
2023-02-11T21:18:35.271Z,200.23
2023-02-11T21:21:01.876Z,192.87
2023-02-11T21:23:29.082Z,208.83
2023-02-11T21:25:56.544Z,188.63
2023-02-11T21:28:26.505Z,196.57
2023-02-11T21:30:54.402Z,199.40
2023-02-11T21:33:21.799Z,196.10
2023-02-11T21:35:48.730Z,193.17
2023-02-11T21:38:15.544Z,184.67
2023-02-11T21:40:42.118Z,180.40
2023-02-11T21:43:08.747Z,207.60
2023-02-11T21:45:36.984Z,188.57
2023-02-11T21:48:04.266Z,198.97
2023-02-11T21:50:30.942Z,183.90
2023-02-11T21:52:57.474Z,176.40
2023-02-11T21:55:24.110Z,192.50
2023-02-11T21:57:53.815Z,185.43
2023-02-11T22:00:20.701Z,182.67
2023-02-11T22:02:49.556Z,186.37
2023-02-11T22:05:16.637Z,189.80
2023-02-11T22:07:43.219Z,181.00
2023-02-11T22:10:10.134Z,178.17
2023-02-11T22:12:36.675Z,181.97
2023-02-11T22:15:03.206Z,194.90
2023-02-11T22:17:29.834Z,193.60
2023-02-11T22:19:57.304Z,202.40
2023-02-11T22:22:23.835Z,200.13
2023-02-11T22:24:50.561Z,211.70
2023-02-11T22:27:20.111Z,191.50
2023-02-11T22:29:46.742Z,191.30
2023-02-11T22:32:13.888Z,203.03
2023-02-11T22:34:40.629Z,222.67
2023-02-11T22:37:07.624Z,233.33
2023-02-11T22:39:34.247Z,219.60
2023-02-11T22:42:00.758Z,199.30
2023-02-11T22:44:27.429Z,200.53
2023-02-11T22:46:54.254Z,218.53
2023-02-11T22:49:21.565Z,211.13
2023-02-11T22:51:48.269Z,214.10
2023-02-11T22:54:16.118Z,199.23
2023-02-11T22:56:42.707Z,248.10
2023-02-11T22:59:11.599Z,249.67
2023-02-11T23:01:38.290Z,242.87
2023-02-11T23:04:06.187Z,244.93
2023-02-11T23:06:33.052Z,203.80
2023-02-11T23:08:59.607Z,224.70
2023-02-11T23:11:28.474Z,226.00
2023-02-11T23:13:55.147Z,246.07
2023-02-11T23:16:24.000Z,212.47
2023-02-11T23:18:51.322Z,205.83
2023-02-11T23:21:21.071Z,230.10
2023-02-11T23:23:48.880Z,211.17
2023-02-11T23:26:16.867Z,231.10
2023-02-11T23:28:46.447Z,230.00
2023-02-11T23:31:20.798Z,217.50
2023-02-11T23:33:48.079Z,234.57
2023-02-11T23:36:15.244Z,247.87
2023-02-11T23:38:42.144Z,241.00
2023-02-11T23:41:09.119Z,229.73
2023-02-11T23:43:35.707Z,212.87
2023-02-11T23:46:02.282Z,232.83
2023-02-11T23:48:28.836Z,231.27
2023-02-11T23:50:55.612Z,234.40
2023-02-11T23:53:22.089Z,253.93
2023-02-11T23:55:48.704Z,238.97
2023-02-11T23:58:15.377Z,243.13
